Blue Hill Meteorological Observatory

42° 12' 44"N, 71° 06' 53"W, Elevation 635 ft.
Eastern Time

Hourly observations for the last 72 hours

Date Time Temperature (°F) Humi-
dity

(%)
Wind
(mph)
Pressure Rain (in) Sun
(W/m2)
ET
(in)
Air Dew 6 Hour 1 Hr 3 Hr 6 Hr Day
Alt
(in)
Sea
Level

(mb)
Max Min
27 20:00 30.1 17.1 58 W 28 G 38 29.56 1001.0 0.51 0 0.074
27 19:00 32.3 18.8 44.1 32.0 57 W 25 G 42 29.53 1000.0 0.51 0 0.070
27 18:00 32.9 19.7 58 WNW 23 G 36 29.48 998.4 0.51 0 0.065
27 17:00 34.6 20.5 56 W 27 G 47 29.43 996.8 0.51 42 0.058
27 16:00 36.8 22.6 56 W 35 G 50 29.40 995.6 0.51 229 0.048
27 15:00 38.8 26.9 62 W 28 G 41 29.35 993.8 0.51 84 0.039
27 14:00 40.1 30.0 67 W 25 G 42 29.30 992.3 0.51 181 0.029
27 13:00 42.8 34.4 48.5 42.5 72 W 28 G 42 29.27 991.2 0.12 0.51 181 0.019
27 12:00 42.9 37.5 81 W 29 G 43 29.26 990.8 0.51 204 0.010
27 11:00 45.1 43.2 93 WSW 25 G 44 29.22 989.6 0.51 744 0.004
27 10:00 47.0 46.5 98 S 28 G 38 29.21 989.2 0.12 0.51 69 0.002
27 09:00 46.5 46.0 98 SSE 18 G 25 29.25 990.6 0.05 0.51 60 0.001
27 08:00 44.7 44.2 98 SE 17 G 32 29.30 992.1 0.07 0.46 18 0.000
27 07:00 43.6 43.1 43.6 39.2 98 ESE 20 G 34 29.33 993.1 0.06 0.23 0.39 0.39 0 0.000
27 06:00 41.9 41.4 98 ESE 26 G 36 29.39 995.1 0.05 0.33 0 0.000
27 05:00 40.4 39.9 98 E 25 G 35 29.47 998.1 0.12 0.28 0 0.000
27 04:00 39.9 39.4 98 E 20 G 28 29.56 1001.0 0.13 0.16 0.16 0 0.000
27 03:00 39.5 38.7 97 E 16 G 31 29.64 1003.7 0.02 0.03 0 0.000
27 02:00 39.5 38.7 97 ENE 11 G 23 29.72 1006.3 0.01 0.01 0 0.000
27 01:00 39.3 38.5 39.8 39.0 97 E 14 G 21 29.77 1008.3 0.00 0 0.000
27 00:00 39.5 38.7 97 E 14 G 24 29.82 1010.0 0.07 0 0.029
26 23:00 39.6 38.8 97 E 14 G 21 29.87 1011.4 0.06 0 0.029
26 22:00 39.5 38.7 97 E 14 G 18 29.90 1012.4 0.06 0 0.029
26 21:00 39.3 38.5 97 E 13 G 19 29.92 1013.4 0.06 0 0.029
26 20:00 39.1 38.3 97 E 14 G 20 29.95 1014.2 0.06 0 0.029
26 19:00 39.3 38.3 43.9 39.3 96 ENE 12 G 19 29.95 1014.3 0.06 0 0.029
26 18:00 39.7 38.7 96 ENE 9 G 13 29.97 1015.0 0.06 0 0.029
26 17:00 40.4 39.4 96 E 10 G 14 29.98 1015.1 0.06 5 0.029
26 16:00 40.8 39.5 95 E 8 G 14 29.95 1014.4 0.06 39 0.028
26 15:00 41.6 40.0 94 ENE 9 G 13 29.96 1014.6 0.06 86 0.026
26 14:00 43.1 40.4 90 ENE 9 G 13 29.98 1015.4 0.06 197 0.022
26 13:00 43.9 41.2 44.6 39.1 90 NE 10 G 16 30.00 1016.1 0.06 311 0.017
26 12:00 44.1 41.1 89 E 11 G 15 30.00 1016.0 0.06 346 0.011
26 11:00 42.9 40.2 90 ENE 9 G 12 30.00 1016.1 0.06 244 0.006
26 10:00 41.9 40.3 94 ENE 10 G 13 30.01 1016.2 0.06 234 0.003
26 09:00 40.1 39.1 96 ENE 8 G 12 30.00 1016.1 0.06 158 0.001
26 08:00 39.3 38.3 96 NE 8 G 13 29.99 1015.7 0.06 79 0.000
26 07:00 39.7 38.9 41.1 39.6 97 NNE 10 G 13 29.97 1014.9 0.01 0.05 0.06 16 0.000
26 06:00 40.1 39.1 96 NE 10 G 13 29.96 1014.5 0.01 0.06 0 0.000
26 05:00 39.9 38.9 96 NE 7 G 11 29.95 1014.3 0.05 0 0.000
26 04:00 40.1 39.1 96 ENE 10 G 12 29.93 1013.7 0.01 0.04 0.05 0 0.000
26 03:00 40.5 39.5 96 E 10 G 12 29.94 1013.9 0.04 0 0.000
26 02:00 40.7 39.6 96 E 9 G 14 29.95 1014.3 0.03 0.04 0 0.000
26 01:00 41.1 40.0 46.7 40.7 96 ENE 11 G 15 29.94 1013.9 0.02 0.07 0.10 0.01 0 0.000
26 00:00 41.1 40.0 96 ENE 10 G 13 29.93 1013.6 0.01 0.08 0 0.044
25 23:00 41.3 40.2 96 ENE 10 G 14 29.95 1014.1 0.04 0.07 0 0.044
25 22:00 40.7 39.4 95 NE 10 G 15 29.95 1014.2 0.03 0.03 0.03 0 0.044
25 21:00 41.3 39.7 94 NE 9 G 13 29.94 1014.0 0.00 0 0.044
25 20:00 42.3 39.3 89 NE 10 G 14 29.92 1013.3 0.00 0 0.043
25 19:00 46.7 41.2 52.8 45.7 81 E 7 G 13 29.91 1012.9 0.00 0 0.042
25 18:00 46.0 41.1 83 E 10 G 14 29.90 1012.6 0.00 0 0.041
25 17:00 46.0 41.4 84 ENE 10 G 13 29.89 1012.2 0.00 9 0.040
25 16:00 48.7 42.5 79 NE 6 G 9 29.87 1011.6 0.00 56 0.037
25 15:00 52.6 40.8 64 WSW 4 G 6 29.87 1011.5 0.00 163 0.032
25 14:00 52.1 42.2 69 SW 5 G 8 29.87 1011.5 0.00 348 0.027
25 13:00 50.8 42.1 50.9 41.1 72 S 4 G 8 29.89 1012.1 0.00 156 0.023
25 12:00 49.3 42.4 77 SSE 3 G 8 29.90 1012.7 0.00 237 0.018
25 11:00 48.1 42.2 80 S 4 G 8 29.92 1013.2 0.00 214 0.013
25 10:00 46.5 42.8 87 SSE 7 G 10 29.92 1013.1 0.00 364 0.007
25 09:00 43.2 41.3 93 SSE 8 G 11 29.92 1013.3 0.00 153 0.005
25 08:00 41.7 40.1 94 S 4 G 6 29.93 1013.4 0.00 56 0.004
25 07:00 41.1 39.5 41.1 40.2 94 WSW 6 G 8 29.91 1012.7 0.00 11 0.004
25 06:00 40.9 39.3 94 SSW 9 G 13 29.91 1013.0 0.00 0 0.004
25 05:00 40.7 38.8 93 SW 12 G 16 29.92 1013.4 0.00 0 0.004
25 04:00 40.7 38.6 92 S 10 G 15 29.91 1013.0 0.00 0 0.003
25 03:00 40.4 38.0 91 S 10 G 16 29.93 1013.5 0.00 0 0.002
25 02:00 40.5 37.5 89 S 12 G 16 29.94 1013.9 0.00 0 0.001
25 01:00 40.7 37.1 47.0 40.6 87 S 10 G 15 29.95 1014.2 0.00 0 0.000
25 00:00 40.8 35.4 81 S 11 G 18 29.97 1015.1 0.00 0 0.168
24 23:00 42.1 33.7 72 SSW 12 G 15 29.97 1014.9 0.00 0 0.166
24 22:00 43.0 34.2 71 SSW 13 G 18 29.98 1015.2 0.00 0 0.163
24 21:00 44.5 34.2 67 SSW 15 G 21 29.99 1015.7 0.00 0 0.160

Data generated by WxSolution Version 1.9.1.8, Build 2020.02.16.